sensor_id;sensor_type;location;lat;lon;timestamp;P1;durP1;ratioP1;P2;durP2;ratioP2
19605;SDS011;9950;50.168;8.210;2023-11-19T00:02:26;10.07;;;6.15;;
19605;SDS011;9950;50.168;8.210;2023-11-19T00:04:53;10.88;;;6.72;;
19605;SDS011;9950;50.168;8.210;2023-11-19T00:07:20;8.38;;;5.78;;
19605;SDS011;9950;50.168;8.210;2023-11-19T00:09:47;7.85;;;5.30;;
19605;SDS011;9950;50.168;8.210;2023-11-19T00:12:15;9.05;;;6.30;;
19605;SDS011;9950;50.168;8.210;2023-11-19T00:14:42;10.48;;;6.85;;
19605;SDS011;9950;50.168;8.210;2023-11-19T00:17:09;7.93;;;5.95;;
19605;SDS011;9950;50.168;8.210;2023-11-19T00:19:38;7.38;;;5.35;;
19605;SDS011;9950;50.168;8.210;2023-11-19T00:22:06;7.00;;;5.50;;
19605;SDS011;9950;50.168;8.210;2023-11-19T00:24:33;7.10;;;5.25;;
19605;SDS011;9950;50.168;8.210;2023-11-19T00:27:01;7.22;;;4.93;;
19605;SDS011;9950;50.168;8.210;2023-11-19T00:29:28;10.02;;;5.20;;
19605;SDS011;9950;50.168;8.210;2023-11-19T00:31:55;7.65;;;5.30;;
19605;SDS011;9950;50.168;8.210;2023-11-19T00:34:22;6.95;;;5.10;;
19605;SDS011;9950;50.168;8.210;2023-11-19T00:36:51;6.55;;;4.50;;
19605;SDS011;9950;50.168;8.210;2023-11-19T00:39:20;7.78;;;4.82;;
19605;SDS011;9950;50.168;8.210;2023-11-19T00:41:47;5.85;;;4.68;;
19605;SDS011;9950;50.168;8.210;2023-11-19T00:44:14;6.40;;;4.95;;
19605;SDS011;9950;50.168;8.210;2023-11-19T00:46:43;7.55;;;5.43;;
19605;SDS011;9950;50.168;8.210;2023-11-19T00:49:10;9.00;;;5.95;;
19605;SDS011;9950;50.168;8.210;2023-11-19T00:51:37;6.55;;;4.60;;
19605;SDS011;9950;50.168;8.210;2023-11-19T00:54:06;8.20;;;5.70;;
19605;SDS011;9950;50.168;8.210;2023-11-19T00:56:33;7.32;;;5.13;;
19605;SDS011;9950;50.168;8.210;2023-11-19T00:59:00;6.70;;;5.10;;
19605;SDS011;9950;50.168;8.210;2023-11-19T01:01:27;8.10;;;5.50;;
19605;SDS011;9950;50.168;8.210;2023-11-19T01:03:54;7.20;;;5.32;;
19605;SDS011;9950;50.168;8.210;2023-11-19T01:06:28;7.90;;;5.63;;
19605;SDS011;9950;50.168;8.210;2023-11-19T01:08:55;8.82;;;5.57;;
19605;SDS011;9950;50.168;8.210;2023-11-19T01:11:25;8.82;;;6.00;;
19605;SDS011;9950;50.168;8.210;2023-11-19T01:13:53;10.73;;;5.63;;
19605;SDS011;9950;50.168;8.210;2023-11-19T01:16:20;9.55;;;5.95;;
19605;SDS011;9950;50.168;8.210;2023-11-19T01:18:48;9.45;;;5.72;;
19605;SDS011;9950;50.168;8.210;2023-11-19T01:21:15;10.77;;;5.80;;
19605;SDS011;9950;50.168;8.210;2023-11-19T01:23:42;7.63;;;5.13;;
19605;SDS011;9950;50.168;8.210;2023-11-19T01:26:10;7.28;;;4.90;;
19605;SDS011;9950;50.168;8.210;2023-11-19T01:28:43;7.40;;;4.93;;
19605;SDS011;9950;50.168;8.210;2023-11-19T01:31:11;8.38;;;5.43;;
19605;SDS011;9950;50.168;8.210;2023-11-19T01:33:39;8.20;;;5.10;;
19605;SDS011;9950;50.168;8.210;2023-11-19T01:36:06;9.30;;;5.25;;
19605;SDS011;9950;50.168;8.210;2023-11-19T01:38:34;13.20;;;6.15;;
19605;SDS011;9950;50.168;8.210;2023-11-19T01:41:01;9.65;;;6.32;;
19605;SDS011;9950;50.168;8.210;2023-11-19T01:43:34;10.48;;;6.32;;
19605;SDS011;9950;50.168;8.210;2023-11-19T01:46:03;9.18;;;5.28;;
19605;SDS011;9950;50.168;8.210;2023-11-19T01:48:31;9.90;;;5.65;;
19605;SDS011;9950;50.168;8.210;2023-11-19T01:50:59;10.82;;;6.05;;
19605;SDS011;9950;50.168;8.210;2023-11-19T01:53:27;9.73;;;5.70;;
19605;SDS011;9950;50.168;8.210;2023-11-19T01:55:54;9.48;;;5.82;;
19605;SDS011;9950;50.168;8.210;2023-11-19T01:58:22;12.65;;;6.97;;
19605;SDS011;9950;50.168;8.210;2023-11-19T02:00:50;12.65;;;7.05;;
19605;SDS011;9950;50.168;8.210;2023-11-19T02:03:18;9.52;;;6.07;;
19605;SDS011;9950;50.168;8.210;2023-11-19T02:05:47;9.63;;;6.22;;
19605;SDS011;9950;50.168;8.210;2023-11-19T02:08:16;10.35;;;6.38;;
19605;SDS011;9950;50.168;8.210;2023-11-19T02:10:43;9.57;;;6.15;;
19605;SDS011;9950;50.168;8.210;2023-11-19T02:13:10;8.60;;;5.80;;
19605;SDS011;9950;50.168;8.210;2023-11-19T02:15:38;7.72;;;4.97;;
19605;SDS011;9950;50.168;8.210;2023-11-19T02:18:23;8.30;;;4.97;;
19605;SDS011;9950;50.168;8.210;2023-11-19T02:20:52;6.88;;;4.55;;
19605;SDS011;9950;50.168;8.210;2023-11-19T02:23:20;6.93;;;5.00;;
19605;SDS011;9950;50.168;8.210;2023-11-19T02:25:47;6.10;;;4.65;;
19605;SDS011;9950;50.168;8.210;2023-11-19T02:28:19;7.38;;;4.97;;
19605;SDS011;9950;50.168;8.210;2023-11-19T02:30:46;9.35;;;5.78;;
19605;SDS011;9950;50.168;8.210;2023-11-19T02:33:13;9.15;;;5.45;;
19605;SDS011;9950;50.168;8.210;2023-11-19T02:35:42;7.82;;;5.18;;
19605;SDS011;9950;50.168;8.210;2023-11-19T02:38:09;8.50;;;5.60;;
19605;SDS011;9950;50.168;8.210;2023-11-19T02:40:39;11.00;;;6.40;;
19605;SDS011;9950;50.168;8.210;2023-11-19T02:43:06;9.25;;;5.20;;
19605;SDS011;9950;50.168;8.210;2023-11-19T02:45:35;8.98;;;5.15;;
19605;SDS011;9950;50.168;8.210;2023-11-19T02:48:02;11.73;;;5.68;;
19605;SDS011;9950;50.168;8.210;2023-11-19T02:50:31;9.43;;;5.57;;
19605;SDS011;9950;50.168;8.210;2023-11-19T02:52:58;10.73;;;6.22;;
19605;SDS011;9950;50.168;8.210;2023-11-19T02:55:26;9.95;;;6.18;;
19605;SDS011;9950;50.168;8.210;2023-11-19T02:57:55;11.40;;;6.07;;
19605;SDS011;9950;50.168;8.210;2023-11-19T03:00:24;11.38;;;5.97;;
19605;SDS011;9950;50.168;8.210;2023-11-19T03:03:03;9.50;;;6.28;;
19605;SDS011;9950;50.168;8.210;2023-11-19T03:05:42;10.93;;;6.13;;
19605;SDS011;9950;50.168;8.210;2023-11-19T03:08:11;9.50;;;5.93;;
19605;SDS011;9950;50.168;8.210;2023-11-19T03:10:38;9.05;;;5.65;;
19605;SDS011;9950;50.168;8.210;2023-11-19T03:13:05;9.32;;;5.55;;
19605;SDS011;9950;50.168;8.210;2023-11-19T03:15:38;7.97;;;5.10;;
19605;SDS011;9950;50.168;8.210;2023-11-19T03:18:06;11.48;;;5.25;;
19605;SDS011;9950;50.168;8.210;2023-11-19T03:20:33;11.18;;;6.18;;
19605;SDS011;9950;50.168;8.210;2023-11-19T03:23:00;7.53;;;5.30;;
19605;SDS011;9950;50.168;8.210;2023-11-19T03:25:28;7.03;;;4.65;;
19605;SDS011;9950;50.168;8.210;2023-11-19T03:27:58;9.40;;;4.82;;
19605;SDS011;9950;50.168;8.210;2023-11-19T03:30:26;7.10;;;5.00;;
19605;SDS011;9950;50.168;8.210;2023-11-19T03:32:54;8.65;;;5.40;;
19605;SDS011;9950;50.168;8.210;2023-11-19T03:35:22;8.32;;;5.00;;
19605;SDS011;9950;50.168;8.210;2023-11-19T03:37:50;7.07;;;4.70;;
19605;SDS011;9950;50.168;8.210;2023-11-19T03:40:17;8.45;;;5.30;;
19605;SDS011;9950;50.168;8.210;2023-11-19T03:42:45;8.38;;;5.00;;
19605;SDS011;9950;50.168;8.210;2023-11-19T03:45:12;8.60;;;5.18;;
19605;SDS011;9950;50.168;8.210;2023-11-19T03:47:40;6.13;;;4.10;;
19605;SDS011;9950;50.168;8.210;2023-11-19T03:50:08;4.75;;;3.50;;
19605;SDS011;9950;50.168;8.210;2023-11-19T03:52:36;5.07;;;3.65;;
19605;SDS011;9950;50.168;8.210;2023-11-19T03:55:04;5.70;;;3.13;;
19605;SDS011;9950;50.168;8.210;2023-11-19T03:57:33;4.78;;;3.25;;
19605;SDS011;9950;50.168;8.210;2023-11-19T04:00:00;4.25;;;2.97;;
19605;SDS011;9950;50.168;8.210;2023-11-19T04:02:33;4.45;;;3.00;;
19605;SDS011;9950;50.168;8.210;2023-11-19T04:05:00;3.95;;;2.97;;
19605;SDS011;9950;50.168;8.210;2023-11-19T04:07:28;4.80;;;2.70;;
19605;SDS011;9950;50.168;8.210;2023-11-19T04:09:56;3.67;;;2.60;;
19605;SDS011;9950;50.168;8.210;2023-11-19T04:12:23;4.13;;;2.75;;
19605;SDS011;9950;50.168;8.210;2023-11-19T04:14:51;6.75;;;3.50;;
19605;SDS011;9950;50.168;8.210;2023-11-19T04:17:18;7.65;;;3.10;;
19605;SDS011;9950;50.168;8.210;2023-11-19T04:19:45;5.47;;;2.83;;
19605;SDS011;9950;50.168;8.210;2023-11-19T04:22:13;5.60;;;2.90;;
19605;SDS011;9950;50.168;8.210;2023-11-19T04:24:40;5.88;;;3.67;;
19605;SDS011;9950;50.168;8.210;2023-11-19T04:27:10;5.07;;;3.40;;
19605;SDS011;9950;50.168;8.210;2023-11-19T04:29:37;4.00;;;2.88;;
19605;SDS011;9950;50.168;8.210;2023-11-19T04:32:05;3.80;;;2.80;;
19605;SDS011;9950;50.168;8.210;2023-11-19T04:34:33;5.10;;;3.08;;
19605;SDS011;9950;50.168;8.210;2023-11-19T04:37:01;3.90;;;2.55;;
19605;SDS011;9950;50.168;8.210;2023-11-19T04:39:29;4.00;;;2.40;;
19605;SDS011;9950;50.168;8.210;2023-11-19T04:41:56;2.67;;;2.00;;
19605;SDS011;9950;50.168;8.210;2023-11-19T04:44:25;2.92;;;2.17;;
19605;SDS011;9950;50.168;8.210;2023-11-19T04:46:54;3.10;;;2.13;;
19605;SDS011;9950;50.168;8.210;2023-11-19T04:49:22;4.82;;;2.03;;
19605;SDS011;9950;50.168;8.210;2023-11-19T04:51:51;2.85;;;2.08;;
19605;SDS011;9950;50.168;8.210;2023-11-19T04:54:19;3.03;;;2.20;;
19605;SDS011;9950;50.168;8.210;2023-11-19T04:56:46;2.17;;;1.80;;
19605;SDS011;9950;50.168;8.210;2023-11-19T04:59:13;2.13;;;1.60;;
19605;SDS011;9950;50.168;8.210;2023-11-19T05:01:46;2.83;;;1.50;;
19605;SDS011;9950;50.168;8.210;2023-11-19T05:04:13;1.73;;;1.30;;
19605;SDS011;9950;50.168;8.210;2023-11-19T05:06:40;1.20;;;1.02;;
19605;SDS011;9950;50.168;8.210;2023-11-19T05:09:07;0.80;;;0.73;;
19605;SDS011;9950;50.168;8.210;2023-11-19T05:11:37;1.42;;;0.75;;
19605;SDS011;9950;50.168;8.210;2023-11-19T05:14:05;0.90;;;0.90;;
19605;SDS011;9950;50.168;8.210;2023-11-19T05:16:34;1.13;;;0.80;;
19605;SDS011;9950;50.168;8.210;2023-11-19T05:19:02;0.70;;;0.70;;
19605;SDS011;9950;50.168;8.210;2023-11-19T05:21:29;4.18;;;0.80;;
19605;SDS011;9950;50.168;8.210;2023-11-19T05:23:56;1.58;;;0.52;;
19605;SDS011;9950;50.168;8.210;2023-11-19T05:26:23;0.60;;;0.60;;
19605;SDS011;9950;50.168;8.210;2023-11-19T05:28:50;1.13;;;1.02;;
19605;SDS011;9950;50.168;8.210;2023-11-19T05:31:17;0.82;;;0.70;;
19605;SDS011;9950;50.168;8.210;2023-11-19T05:33:45;2.03;;;0.70;;
19605;SDS011;9950;50.168;8.210;2023-11-19T05:36:13;10.60;;;5.78;;
19605;SDS011;9950;50.168;8.210;2023-11-19T05:38:40;1.83;;;1.35;;
19605;SDS011;9950;50.168;8.210;2023-11-19T05:41:08;14.88;;;7.22;;
19605;SDS011;9950;50.168;8.210;2023-11-19T05:43:35;2.83;;;1.88;;
19605;SDS011;9950;50.168;8.210;2023-11-19T05:46:02;1.95;;;0.90;;
19605;SDS011;9950;50.168;8.210;2023-11-19T05:48:30;2.53;;;0.82;;
19605;SDS011;9950;50.168;8.210;2023-11-19T05:50:57;1.48;;;1.17;;
19605;SDS011;9950;50.168;8.210;2023-11-19T05:53:26;2.90;;;0.93;;
19605;SDS011;9950;50.168;8.210;2023-11-19T05:55:54;1.30;;;0.93;;
19605;SDS011;9950;50.168;8.210;2023-11-19T05:58:23;2.85;;;1.50;;
19605;SDS011;9950;50.168;8.210;2023-11-19T06:00:53;2.45;;;1.92;;
19605;SDS011;9950;50.168;8.210;2023-11-19T06:03:20;3.65;;;2.25;;
19605;SDS011;9950;50.168;8.210;2023-11-19T06:05:47;2.75;;;2.30;;
19605;SDS011;9950;50.168;8.210;2023-11-19T06:08:15;5.78;;;2.80;;
19605;SDS011;9950;50.168;8.210;2023-11-19T06:10:43;5.38;;;2.60;;
19605;SDS011;9950;50.168;8.210;2023-11-19T06:13:12;3.08;;;2.45;;
19605;SDS011;9950;50.168;8.210;2023-11-19T06:15:40;3.17;;;2.25;;
19605;SDS011;9950;50.168;8.210;2023-11-19T06:18:07;2.92;;;2.20;;
19605;SDS011;9950;50.168;8.210;2023-11-19T06:20:35;6.00;;;2.83;;
19605;SDS011;9950;50.168;8.210;2023-11-19T06:23:02;2.42;;;2.00;;
19605;SDS011;9950;50.168;8.210;2023-11-19T06:25:29;3.45;;;2.35;;
19605;SDS011;9950;50.168;8.210;2023-11-19T06:27:57;12.30;;;7.63;;
19605;SDS011;9950;50.168;8.210;2023-11-19T06:30:25;26.60;;;17.38;;
19605;SDS011;9950;50.168;8.210;2023-11-19T06:32:53;63.67;;;34.70;;
19605;SDS011;9950;50.168;8.210;2023-11-19T06:35:20;16.42;;;10.30;;
19605;SDS011;9950;50.168;8.210;2023-11-19T06:37:47;3.22;;;2.38;;
19605;SDS011;9950;50.168;8.210;2023-11-19T06:40:15;5.25;;;2.20;;
19605;SDS011;9950;50.168;8.210;2023-11-19T06:42:42;2.20;;;2.00;;
19605;SDS011;9950;50.168;8.210;2023-11-19T06:45:11;5.30;;;2.40;;
19605;SDS011;9950;50.168;8.210;2023-11-19T06:47:38;4.07;;;2.83;;
19605;SDS011;9950;50.168;8.210;2023-11-19T06:50:06;3.50;;;2.55;;
19605;SDS011;9950;50.168;8.210;2023-11-19T06:52:34;5.78;;;2.30;;
19605;SDS011;9950;50.168;8.210;2023-11-19T06:55:02;3.70;;;2.85;;
19605;SDS011;9950;50.168;8.210;2023-11-19T06:57:29;4.97;;;3.08;;
19605;SDS011;9950;50.168;8.210;2023-11-19T06:59:57;11.77;;;3.53;;
19605;SDS011;9950;50.168;8.210;2023-11-19T07:02:26;5.65;;;3.58;;
19605;SDS011;9950;50.168;8.210;2023-11-19T07:04:53;6.65;;;3.72;;
19605;SDS011;9950;50.168;8.210;2023-11-19T07:07:20;5.93;;;3.05;;
19605;SDS011;9950;50.168;8.210;2023-11-19T07:09:47;5.72;;;3.80;;
19605;SDS011;9950;50.168;8.210;2023-11-19T07:12:15;6.43;;;3.13;;
19605;SDS011;9950;50.168;8.210;2023-11-19T07:14:42;5.47;;;2.85;;
19605;SDS011;9950;50.168;8.210;2023-11-19T07:17:09;6.68;;;3.60;;
19605;SDS011;9950;50.168;8.210;2023-11-19T07:19:39;5.40;;;3.67;;
19605;SDS011;9950;50.168;8.210;2023-11-19T07:22:06;5.30;;;3.53;;
19605;SDS011;9950;50.168;8.210;2023-11-19T07:24:33;8.05;;;3.97;;
19605;SDS011;9950;50.168;8.210;2023-11-19T07:27:00;6.72;;;3.70;;
19605;SDS011;9950;50.168;8.210;2023-11-19T07:29:29;4.78;;;3.63;;
19605;SDS011;9950;50.168;8.210;2023-11-19T07:31:56;10.30;;;3.55;;
19605;SDS011;9950;50.168;8.210;2023-11-19T07:34:23;13.05;;;8.00;;
19605;SDS011;9950;50.168;8.210;2023-11-19T07:36:52;6.95;;;4.97;;
19605;SDS011;9950;50.168;8.210;2023-11-19T07:39:22;6.00;;;3.85;;
19605;SDS011;9950;50.168;8.210;2023-11-19T07:41:49;9.32;;;3.58;;
19605;SDS011;9950;50.168;8.210;2023-11-19T07:44:16;7.25;;;4.20;;
19605;SDS011;9950;50.168;8.210;2023-11-19T07:46:43;7.90;;;4.05;;
19605;SDS011;9950;50.168;8.210;2023-11-19T07:49:11;8.85;;;4.03;;
19605;SDS011;9950;50.168;8.210;2023-11-19T07:51:38;7.85;;;3.63;;
19605;SDS011;9950;50.168;8.210;2023-11-19T07:54:06;11.10;;;3.53;;
19605;SDS011;9950;50.168;8.210;2023-11-19T07:56:33;8.20;;;3.33;;
19605;SDS011;9950;50.168;8.210;2023-11-19T07:59:01;6.05;;;2.92;;
19605;SDS011;9950;50.168;8.210;2023-11-19T08:01:28;11.43;;;3.10;;
19605;SDS011;9950;50.168;8.210;2023-11-19T08:03:56;12.30;;;3.22;;
19605;SDS011;9950;50.168;8.210;2023-11-19T08:06:23;7.80;;;2.80;;
19605;SDS011;9950;50.168;8.210;2023-11-19T08:08:50;8.25;;;2.78;;
19605;SDS011;9950;50.168;8.210;2023-11-19T08:11:18;7.82;;;4.28;;
19605;SDS011;9950;50.168;8.210;2023-11-19T08:13:46;10.55;;;4.03;;
19605;SDS011;9950;50.168;8.210;2023-11-19T08:16:13;10.88;;;3.67;;
19605;SDS011;9950;50.168;8.210;2023-11-19T08:18:41;8.48;;;2.83;;
19605;SDS011;9950;50.168;8.210;2023-11-19T08:21:08;9.95;;;3.03;;
19605;SDS011;9950;50.168;8.210;2023-11-19T08:23:42;8.90;;;4.35;;
19605;SDS011;9950;50.168;8.210;2023-11-19T08:26:09;8.07;;;3.15;;
19605;SDS011;9950;50.168;8.210;2023-11-19T08:28:38;12.80;;;3.10;;
19605;SDS011;9950;50.168;8.210;2023-11-19T08:31:05;10.13;;;2.97;;
19605;SDS011;9950;50.168;8.210;2023-11-19T08:33:32;6.40;;;2.50;;
19605;SDS011;9950;50.168;8.210;2023-11-19T08:36:00;14.98;;;3.97;;
19605;SDS011;9950;50.168;8.210;2023-11-19T08:38:29;10.98;;;4.53;;
19605;SDS011;9950;50.168;8.210;2023-11-19T08:40:57;10.13;;;2.63;;
19605;SDS011;9950;50.168;8.210;2023-11-19T08:43:25;9.65;;;2.88;;
19605;SDS011;9950;50.168;8.210;2023-11-19T08:45:53;9.98;;;2.78;;
19605;SDS011;9950;50.168;8.210;2023-11-19T08:48:20;9.57;;;3.28;;
19605;SDS011;9950;50.168;8.210;2023-11-19T08:50:47;12.30;;;2.92;;
19605;SDS011;9950;50.168;8.210;2023-11-19T08:53:15;8.90;;;2.13;;
19605;SDS011;9950;50.168;8.210;2023-11-19T08:55:42;12.20;;;2.92;;
19605;SDS011;9950;50.168;8.210;2023-11-19T08:58:09;9.20;;;1.92;;
19605;SDS011;9950;50.168;8.210;2023-11-19T09:00:36;9.02;;;2.55;;
19605;SDS011;9950;50.168;8.210;2023-11-19T09:03:05;9.60;;;2.20;;
19605;SDS011;9950;50.168;8.210;2023-11-19T09:05:34;12.38;;;2.50;;
19605;SDS011;9950;50.168;8.210;2023-11-19T09:08:02;6.63;;;1.95;;
19605;SDS011;9950;50.168;8.210;2023-11-19T09:10:29;8.57;;;1.90;;
19605;SDS011;9950;50.168;8.210;2023-11-19T09:12:56;9.82;;;2.30;;
19605;SDS011;9950;50.168;8.210;2023-11-19T09:15:23;9.45;;;2.22;;
19605;SDS011;9950;50.168;8.210;2023-11-19T09:17:51;8.77;;;2.05;;
19605;SDS011;9950;50.168;8.210;2023-11-19T09:20:19;8.43;;;2.35;;
19605;SDS011;9950;50.168;8.210;2023-11-19T09:22:46;11.98;;;3.45;;
19605;SDS011;9950;50.168;8.210;2023-11-19T09:25:14;11.60;;;2.20;;
19605;SDS011;9950;50.168;8.210;2023-11-19T09:27:42;8.45;;;2.03;;
19605;SDS011;9950;50.168;8.210;2023-11-19T09:30:09;8.90;;;2.30;;
19605;SDS011;9950;50.168;8.210;2023-11-19T09:32:37;7.38;;;1.77;;
19605;SDS011;9950;50.168;8.210;2023-11-19T09:35:05;10.45;;;2.03;;
19605;SDS011;9950;50.168;8.210;2023-11-19T09:37:34;11.57;;;2.08;;
19605;SDS011;9950;50.168;8.210;2023-11-19T09:40:01;9.25;;;2.08;;
19605;SDS011;9950;50.168;8.210;2023-11-19T09:42:28;7.13;;;1.83;;
19605;SDS011;9950;50.168;8.210;2023-11-19T09:44:57;9.75;;;2.25;;
19605;SDS011;9950;50.168;8.210;2023-11-19T09:47:26;11.75;;;2.85;;
19605;SDS011;9950;50.168;8.210;2023-11-19T09:49:55;11.70;;;2.33;;
19605;SDS011;9950;50.168;8.210;2023-11-19T09:52:22;9.95;;;2.03;;
19605;SDS011;9950;50.168;8.210;2023-11-19T09:54:51;11.35;;;2.53;;
19605;SDS011;9950;50.168;8.210;2023-11-19T09:57:18;11.98;;;2.08;;
19605;SDS011;9950;50.168;8.210;2023-11-19T09:59:46;10.15;;;1.90;;
19605;SDS011;9950;50.168;8.210;2023-11-19T10:02:13;9.63;;;2.05;;
19605;SDS011;9950;50.168;8.210;2023-11-19T10:04:41;9.30;;;2.25;;
19605;SDS011;9950;50.168;8.210;2023-11-19T10:07:10;8.68;;;2.00;;
19605;SDS011;9950;50.168;8.210;2023-11-19T10:09:37;9.85;;;1.80;;
19605;SDS011;9950;50.168;8.210;2023-11-19T10:12:06;6.88;;;1.85;;
19605;SDS011;9950;50.168;8.210;2023-11-19T10:14:33;7.05;;;1.77;;
19605;SDS011;9950;50.168;8.210;2023-11-19T10:17:02;6.50;;;2.55;;
19605;SDS011;9950;50.168;8.210;2023-11-19T10:19:30;11.10;;;1.67;;
19605;SDS011;9950;50.168;8.210;2023-11-19T10:22:01;8.27;;;1.67;;
19605;SDS011;9950;50.168;8.210;2023-11-19T10:24:32;7.22;;;2.08;;
19605;SDS011;9950;50.168;8.210;2023-11-19T10:26:59;8.25;;;1.80;;
19605;SDS011;9950;50.168;8.210;2023-11-19T10:29:30;10.13;;;2.63;;
19605;SDS011;9950;50.168;8.210;2023-11-19T10:31:57;11.85;;;2.55;;
19605;SDS011;9950;50.168;8.210;2023-11-19T10:34:25;10.93;;;2.45;;
19605;SDS011;9950;50.168;8.210;2023-11-19T10:36:53;18.90;;;3.83;;
19605;SDS011;9950;50.168;8.210;2023-11-19T10:39:20;11.05;;;2.47;;
19605;SDS011;9950;50.168;8.210;2023-11-19T10:41:49;11.07;;;2.25;;
19605;SDS011;9950;50.168;8.210;2023-11-19T10:47:09;11.60;;;2.40;;
19605;SDS011;9950;50.168;8.210;2023-11-19T10:49:37;14.15;;;2.50;;
19605;SDS011;9950;50.168;8.210;2023-11-19T10:52:05;13.20;;;2.55;;
19605;SDS011;9950;50.168;8.210;2023-11-19T10:54:34;12.23;;;3.08;;
19605;SDS011;9950;50.168;8.210;2023-11-19T10:57:02;9.60;;;1.73;;
19605;SDS011;9950;50.168;8.210;2023-11-19T10:59:29;10.32;;;2.70;;
19605;SDS011;9950;50.168;8.210;2023-11-19T11:01:57;8.43;;;2.33;;
19605;SDS011;9950;50.168;8.210;2023-11-19T11:04:26;10.98;;;1.92;;
19605;SDS011;9950;50.168;8.210;2023-11-19T11:06:56;12.63;;;2.15;;
19605;SDS011;9950;50.168;8.210;2023-11-19T11:09:26;16.67;;;3.00;;
19605;SDS011;9950;50.168;8.210;2023-11-19T11:11:54;9.93;;;1.90;;
19605;SDS011;9950;50.168;8.210;2023-11-19T11:14:22;8.60;;;2.00;;
19605;SDS011;9950;50.168;8.210;2023-11-19T11:16:51;11.65;;;2.22;;
19605;SDS011;9950;50.168;8.210;2023-11-19T11:19:20;11.35;;;2.53;;
19605;SDS011;9950;50.168;8.210;2023-11-19T11:21:50;10.02;;;2.25;;
19605;SDS011;9950;50.168;8.210;2023-11-19T11:27:09;13.32;;;3.15;;
19605;SDS011;9950;50.168;8.210;2023-11-19T11:29:43;10.98;;;2.13;;
19605;SDS011;9950;50.168;8.210;2023-11-19T11:32:16;12.07;;;3.40;;
19605;SDS011;9950;50.168;8.210;2023-11-19T11:34:53;13.52;;;2.20;;
19605;SDS011;9950;50.168;8.210;2023-11-19T11:37:25;15.00;;;2.60;;
19605;SDS011;9950;50.168;8.210;2023-11-19T11:39:55;11.82;;;2.13;;
19605;SDS011;9950;50.168;8.210;2023-11-19T11:42:31;11.93;;;2.58;;
19605;SDS011;9950;50.168;8.210;2023-11-19T11:44:59;15.57;;;2.67;;
19605;SDS011;9950;50.168;8.210;2023-11-19T11:50:10;11.30;;;2.20;;
19605;SDS011;9950;50.168;8.210;2023-11-19T11:52:49;13.70;;;2.22;;
19605;SDS011;9950;50.168;8.210;2023-11-19T11:55:36;16.33;;;2.80;;
19605;SDS011;9950;50.168;8.210;2023-11-19T11:58:05;9.27;;;2.60;;
19605;SDS011;9950;50.168;8.210;2023-11-19T12:00:32;10.48;;;2.40;;
19605;SDS011;9950;50.168;8.210;2023-11-19T12:03:00;8.45;;;1.80;;
19605;SDS011;9950;50.168;8.210;2023-11-19T12:05:27;10.20;;;2.20;;
19605;SDS011;9950;50.168;8.210;2023-11-19T12:07:56;10.32;;;2.22;;
19605;SDS011;9950;50.168;8.210;2023-11-19T12:10:24;12.20;;;1.90;;
19605;SDS011;9950;50.168;8.210;2023-11-19T12:12:52;11.13;;;1.90;;
19605;SDS011;9950;50.168;8.210;2023-11-19T12:15:19;9.23;;;2.15;;
19605;SDS011;9950;50.168;8.210;2023-11-19T12:17:50;11.25;;;2.25;;
19605;SDS011;9950;50.168;8.210;2023-11-19T12:20:16;7.32;;;2.08;;
19605;SDS011;9950;50.168;8.210;2023-11-19T12:22:44;9.18;;;2.10;;
19605;SDS011;9950;50.168;8.210;2023-11-19T12:25:13;10.63;;;1.98;;
19605;SDS011;9950;50.168;8.210;2023-11-19T12:27:41;5.57;;;1.75;;
19605;SDS011;9950;50.168;8.210;2023-11-19T12:30:09;7.80;;;1.65;;
19605;SDS011;9950;50.168;8.210;2023-11-19T12:32:39;9.18;;;1.98;;
19605;SDS011;9950;50.168;8.210;2023-11-19T12:35:07;6.88;;;1.90;;
19605;SDS011;9950;50.168;8.210;2023-11-19T12:37:39;6.68;;;2.15;;
19605;SDS011;9950;50.168;8.210;2023-11-19T12:40:11;7.70;;;2.05;;
19605;SDS011;9950;50.168;8.210;2023-11-19T12:42:39;13.00;;;1.83;;
19605;SDS011;9950;50.168;8.210;2023-11-19T12:45:06;8.10;;;1.75;;
19605;SDS011;9950;50.168;8.210;2023-11-19T12:47:35;7.25;;;1.90;;
19605;SDS011;9950;50.168;8.210;2023-11-19T12:50:03;9.55;;;2.50;;
19605;SDS011;9950;50.168;8.210;2023-11-19T12:52:30;12.00;;;2.15;;
19605;SDS011;9950;50.168;8.210;2023-11-19T12:54:57;4.95;;;1.50;;
19605;SDS011;9950;50.168;8.210;2023-11-19T12:57:35;14.27;;;2.22;;
19605;SDS011;9950;50.168;8.210;2023-11-19T13:00:04;8.82;;;2.05;;
19605;SDS011;9950;50.168;8.210;2023-11-19T13:02:44;5.72;;;1.40;;
19605;SDS011;9950;50.168;8.210;2023-11-19T13:05:25;10.38;;;3.30;;
19605;SDS011;9950;50.168;8.210;2023-11-19T13:07:59;13.57;;;5.28;;
19605;SDS011;9950;50.168;8.210;2023-11-19T13:10:27;10.15;;;2.45;;
19605;SDS011;9950;50.168;8.210;2023-11-19T13:13:01;8.80;;;2.05;;
19605;SDS011;9950;50.168;8.210;2023-11-19T13:15:30;9.25;;;2.42;;
19605;SDS011;9950;50.168;8.210;2023-11-19T13:17:57;6.93;;;1.83;;
19605;SDS011;9950;50.168;8.210;2023-11-19T13:20:24;7.05;;;1.80;;
19605;SDS011;9950;50.168;8.210;2023-11-19T13:22:55;5.80;;;1.60;;
19605;SDS011;9950;50.168;8.210;2023-11-19T13:25:22;7.63;;;1.92;;
19605;SDS011;9950;50.168;8.210;2023-11-19T13:27:49;7.18;;;1.50;;
19605;SDS011;9950;50.168;8.210;2023-11-19T13:30:17;8.63;;;2.10;;
19605;SDS011;9950;50.168;8.210;2023-11-19T13:32:45;11.40;;;1.73;;
19605;SDS011;9950;50.168;8.210;2023-11-19T13:35:13;9.77;;;2.08;;
19605;SDS011;9950;50.168;8.210;2023-11-19T13:37:40;8.98;;;2.08;;
19605;SDS011;9950;50.168;8.210;2023-11-19T13:40:07;9.05;;;2.40;;
19605;SDS011;9950;50.168;8.210;2023-11-19T13:42:38;7.18;;;1.70;;
19605;SDS011;9950;50.168;8.210;2023-11-19T13:45:07;7.03;;;2.10;;
19605;SDS011;9950;50.168;8.210;2023-11-19T13:47:35;11.25;;;2.17;;
19605;SDS011;9950;50.168;8.210;2023-11-19T13:50:07;10.90;;;2.15;;
19605;SDS011;9950;50.168;8.210;2023-11-19T13:52:35;9.57;;;2.00;;
19605;SDS011;9950;50.168;8.210;2023-11-19T13:55:04;7.82;;;2.20;;
19605;SDS011;9950;50.168;8.210;2023-11-19T13:57:32;9.60;;;1.88;;
19605;SDS011;9950;50.168;8.210;2023-11-19T13:59:59;7.95;;;1.50;;
19605;SDS011;9950;50.168;8.210;2023-11-19T14:02:30;8.52;;;2.00;;
19605;SDS011;9950;50.168;8.210;2023-11-19T14:04:57;8.00;;;2.20;;
19605;SDS011;9950;50.168;8.210;2023-11-19T14:07:25;6.80;;;1.40;;
19605;SDS011;9950;50.168;8.210;2023-11-19T14:09:53;6.60;;;1.50;;
19605;SDS011;9950;50.168;8.210;2023-11-19T14:12:20;11.82;;;2.88;;
19605;SDS011;9950;50.168;8.210;2023-11-19T14:14:47;8.77;;;1.83;;
19605;SDS011;9950;50.168;8.210;2023-11-19T14:17:14;6.47;;;1.58;;
19605;SDS011;9950;50.168;8.210;2023-11-19T14:19:41;7.90;;;1.63;;
19605;SDS011;9950;50.168;8.210;2023-11-19T14:22:09;7.90;;;1.83;;
19605;SDS011;9950;50.168;8.210;2023-11-19T14:24:37;8.43;;;1.77;;
19605;SDS011;9950;50.168;8.210;2023-11-19T14:27:06;14.77;;;1.73;;
19605;SDS011;9950;50.168;8.210;2023-11-19T14:29:34;8.98;;;2.50;;
19605;SDS011;9950;50.168;8.210;2023-11-19T14:32:02;5.78;;;2.00;;
19605;SDS011;9950;50.168;8.210;2023-11-19T14:34:29;9.23;;;1.80;;
19605;SDS011;9950;50.168;8.210;2023-11-19T14:36:57;5.13;;;1.45;;
19605;SDS011;9950;50.168;8.210;2023-11-19T14:39:25;9.13;;;1.80;;
19605;SDS011;9950;50.168;8.210;2023-11-19T14:41:55;9.80;;;1.80;;
19605;SDS011;9950;50.168;8.210;2023-11-19T14:44:26;7.57;;;1.75;;
19605;SDS011;9950;50.168;8.210;2023-11-19T14:46:54;6.35;;;1.40;;
19605;SDS011;9950;50.168;8.210;2023-11-19T14:49:22;8.38;;;1.83;;
19605;SDS011;9950;50.168;8.210;2023-11-19T14:51:49;9.38;;;1.80;;
19605;SDS011;9950;50.168;8.210;2023-11-19T14:54:16;9.20;;;2.03;;
19605;SDS011;9950;50.168;8.210;2023-11-19T14:56:43;11.70;;;2.17;;
19605;SDS011;9950;50.168;8.210;2023-11-19T14:59:12;6.28;;;1.63;;
19605;SDS011;9950;50.168;8.210;2023-11-19T15:01:39;12.98;;;1.80;;
19605;SDS011;9950;50.168;8.210;2023-11-19T15:04:06;11.48;;;2.00;;
19605;SDS011;9950;50.168;8.210;2023-11-19T15:06:33;10.13;;;1.63;;
19605;SDS011;9950;50.168;8.210;2023-11-19T15:09:01;10.23;;;1.75;;
19605;SDS011;9950;50.168;8.210;2023-11-19T15:11:28;11.18;;;1.83;;
19605;SDS011;9950;50.168;8.210;2023-11-19T15:13:55;9.85;;;2.13;;